createdAt,value
2018-06-12T00:01:50.655Z,65.80
2018-06-12T00:04:19.575Z,65.60
2018-06-12T00:06:49.260Z,66.10
2018-06-12T00:09:18.250Z,65.90
2018-06-12T00:11:47.144Z,65.20
2018-06-12T00:14:16.647Z,65.70
2018-06-12T00:16:45.447Z,65.90
2018-06-12T00:19:14.248Z,65.30
2018-06-12T00:21:43.214Z,65.20
2018-06-12T00:24:12.412Z,65.00
2018-06-12T00:26:41.412Z,65.10
2018-06-12T00:29:10.850Z,65.60
2018-06-12T00:31:39.831Z,65.50
2018-06-12T00:34:08.792Z,66.00
2018-06-12T00:36:37.727Z,65.50
2018-06-12T00:39:08.335Z,65.50
2018-06-12T00:41:37.353Z,65.10
2018-06-12T00:44:08.542Z,65.80
2018-06-12T00:46:37.503Z,65.70
2018-06-12T00:49:06.616Z,65.60
2018-06-12T00:51:35.676Z,65.60
2018-06-12T00:56:44.187Z,65.60
2018-06-12T00:59:13.080Z,65.80
2018-06-12T01:01:49.068Z,65.90
2018-06-12T01:06:46.498Z,66.20
2018-06-12T01:09:15.294Z,66.80
2018-06-12T01:11:44.139Z,66.70
2018-06-12T01:14:13.108Z,67.10
2018-06-12T01:16:42.223Z,67.30
2018-06-12T01:19:11.164Z,66.40
2018-06-12T01:21:40.368Z,66.80
2018-06-12T01:24:09.282Z,67.00
2018-06-12T01:26:38.234Z,67.10
2018-06-12T01:29:07.543Z,66.90
2018-06-12T01:31:36.672Z,66.80
2018-06-12T01:36:34.432Z,66.20
2018-06-12T01:39:03.749Z,66.40
2018-06-12T01:41:32.764Z,66.80
2018-06-12T01:44:02.165Z,66.70
2018-06-12T01:46:31.105Z,66.50
2018-06-12T01:49:00.138Z,66.70
2018-06-12T01:53:57.153Z,67.00
2018-06-12T01:56:26.086Z,66.60
2018-06-12T01:58:55.173Z,66.40
2018-06-12T02:01:24.251Z,66.40
2018-06-12T02:03:53.223Z,66.20
2018-06-12T02:06:22.034Z,66.00
2018-06-12T02:08:51.194Z,66.00
2018-06-12T02:11:20.378Z,66.20
2018-06-12T02:13:49.362Z,66.80
2018-06-12T02:18:46.505Z,67.20
2018-06-12T02:21:17.382Z,66.90
2018-06-12T02:23:46.269Z,66.50
2018-06-12T02:26:15.195Z,66.70
2018-06-12T02:28:44.092Z,66.40
2018-06-12T02:31:13.005Z,66.50
2018-06-12T02:33:42.030Z,66.20
2018-06-12T02:36:10.873Z,67.10
2018-06-12T02:38:39.774Z,67.50
2018-06-12T02:41:08.645Z,68.40
2018-06-12T02:43:37.775Z,67.80
2018-06-12T02:46:06.737Z,67.70
2018-06-12T02:48:35.568Z,67.80
2018-06-12T02:51:04.436Z,68.40
2018-06-12T02:53:33.532Z,67.90
2018-06-12T02:56:02.530Z,67.70
2018-06-12T02:58:31.390Z,68.60
2018-06-12T03:01:01.315Z,68.60
2018-06-12T03:03:30.156Z,68.60
2018-06-12T03:05:59.052Z,68.60
2018-06-12T03:08:28.004Z,68.10
2018-06-12T03:10:56.903Z,68.20
2018-06-12T03:13:26.304Z,68.40
2018-06-12T03:15:55.080Z,67.90
2018-06-12T03:18:24.432Z,68.10
2018-06-12T03:20:53.494Z,68.00
2018-06-12T03:23:22.574Z,69.00
2018-06-12T03:25:56.901Z,68.90
2018-06-12T03:28:26.136Z,68.60
2018-06-12T03:30:55.198Z,69.50
2018-06-12T03:33:24.185Z,69.20
2018-06-12T03:35:53.500Z,69.00
2018-06-12T03:40:50.777Z,68.70
2018-06-12T03:43:19.668Z,68.80
2018-06-12T03:45:48.437Z,68.90
2018-06-12T03:48:17.331Z,68.40
2018-06-12T03:50:46.652Z,67.70
2018-06-12T03:55:43.985Z,68.60
2018-06-12T03:58:13.091Z,69.00
2018-06-12T04:00:41.984Z,68.60
2018-06-12T04:03:10.882Z,69.20
2018-06-12T04:05:39.888Z,69.00
2018-06-12T04:08:08.769Z,69.30
2018-06-12T04:10:37.752Z,68.40
2018-06-12T04:13:06.788Z,68.40
2018-06-12T04:15:35.893Z,68.60
2018-06-12T04:18:04.933Z,69.20
2018-06-12T04:20:33.984Z,69.30
2018-06-12T04:23:04.101Z,69.30
2018-06-12T04:25:32.972Z,69.80
2018-06-12T04:30:30.750Z,70.80
2018-06-12T04:35:53.360Z,71.30
2018-06-12T04:38:22.290Z,71.10
2018-06-12T04:40:51.330Z,70.70
2018-06-12T04:43:20.268Z,70.50
2018-06-12T04:45:49.367Z,70.60
2018-06-12T04:48:18.164Z,70.30
2018-06-12T04:50:47.037Z,69.90
2018-06-12T04:53:16.139Z,69.80
2018-06-12T04:55:45.175Z,69.80
2018-06-12T04:58:14.123Z,70.10
2018-06-12T05:00:43.248Z,70.00
2018-06-12T05:05:41.048Z,69.70
2018-06-12T05:08:10.268Z,69.10
2018-06-12T05:10:39.587Z,69.30
2018-06-12T05:13:09.040Z,68.60
2018-06-12T05:15:37.939Z,68.80
2018-06-12T05:18:06.954Z,69.30
2018-06-12T05:20:36.029Z,68.90
2018-06-12T05:25:33.973Z,68.60
2018-06-12T05:28:03.339Z,68.50
2018-06-12T05:30:34.579Z,68.90
2018-06-12T05:33:08.707Z,68.50
2018-06-12T05:35:39.779Z,68.50
2018-06-12T05:38:09.075Z,67.40
2018-06-12T05:40:37.969Z,67.90
2018-06-12T05:43:07.077Z,68.20
2018-06-12T05:45:35.995Z,68.40
2018-06-12T05:48:04.798Z,67.90
2018-06-12T05:50:33.490Z,68.10
2018-06-12T05:53:02.431Z,67.90
2018-06-12T05:55:31.337Z,68.30
2018-06-12T05:58:00.210Z,67.90
2018-06-12T06:00:29.122Z,67.90
2018-06-12T06:02:58.028Z,68.40
2018-06-12T06:05:26.989Z,68.60
2018-06-12T06:07:58.948Z,68.40
2018-06-12T06:10:28.030Z,67.80
2018-06-12T06:12:57.027Z,68.00
2018-06-12T06:15:25.895Z,68.00
2018-06-12T06:17:55.260Z,68.50
2018-06-12T06:20:24.233Z,68.00
2018-06-12T06:22:53.651Z,68.20
2018-06-12T06:25:23.044Z,67.70
2018-06-12T06:27:52.056Z,68.10
2018-06-12T06:30:20.916Z,67.70
2018-06-12T06:32:50.030Z,67.70
2018-06-12T06:35:18.929Z,68.70
2018-06-12T06:37:47.894Z,67.90
2018-06-12T06:40:16.704Z,67.50
2018-06-12T06:42:46.032Z,67.40
2018-06-12T06:45:15.017Z,66.90
2018-06-12T06:47:43.877Z,67.20
2018-06-12T06:50:12.775Z,66.80
2018-06-12T06:52:41.431Z,66.70
2018-06-12T06:55:10.253Z,66.30
2018-06-12T06:57:39.294Z,66.20
2018-06-12T07:00:08.551Z,66.70
2018-06-12T07:02:37.414Z,66.30
2018-06-12T07:05:06.214Z,66.10
2018-06-12T07:07:35.325Z,65.70
2018-06-12T07:10:04.334Z,65.60
2018-06-12T07:12:33.306Z,65.70
2018-06-12T07:15:02.554Z,65.00
2018-06-12T07:17:31.758Z,64.70
2018-06-12T07:20:00.728Z,64.50
2018-06-12T07:22:29.605Z,64.30
2018-06-12T07:24:58.569Z,63.60
2018-06-12T07:27:27.490Z,64.20
2018-06-12T07:29:56.255Z,64.10
2018-06-12T07:32:25.264Z,63.00
2018-06-12T07:34:54.181Z,63.40
2018-06-12T07:37:23.049Z,63.40
2018-06-12T07:39:51.913Z,62.90
2018-06-12T07:42:20.582Z,63.00
2018-06-12T07:44:53.966Z,61.80
2018-06-12T07:47:22.885Z,61.40
2018-06-12T07:49:51.779Z,62.10
2018-06-12T07:52:21.101Z,61.60
2018-06-12T07:54:49.979Z,62.10
2018-06-12T07:57:18.968Z,61.80
2018-06-12T07:59:48.054Z,61.50
2018-06-12T08:02:16.958Z,61.30
2018-06-12T08:04:45.790Z,61.10
2018-06-12T08:07:14.643Z,60.20
2018-06-12T08:09:43.569Z,59.80
2018-06-12T08:14:40.501Z,60.50
2018-06-12T08:17:09.402Z,59.80
2018-06-12T08:19:38.377Z,59.20
2018-06-12T08:22:07.315Z,59.10
2018-06-12T08:24:36.057Z,59.10
2018-06-12T08:27:05.097Z,58.70
2018-06-12T08:29:33.999Z,59.30
2018-06-12T08:32:03.457Z,57.50
2018-06-12T08:34:32.414Z,58.40
2018-06-12T08:37:01.452Z,58.40
2018-06-12T08:39:30.261Z,58.70
2018-06-12T08:41:59.163Z,58.30
2018-06-12T08:44:28.455Z,57.90
2018-06-12T08:46:57.324Z,57.90
2018-06-12T08:49:26.237Z,56.70
2018-06-12T08:51:55.266Z,56.40
2018-06-12T08:54:24.228Z,56.10
2018-06-12T08:56:53.116Z,56.70
2018-06-12T08:59:21.858Z,56.80
2018-06-12T09:01:50.783Z,56.70
2018-06-12T09:04:19.669Z,55.60
2018-06-12T09:06:48.654Z,55.40
2018-06-12T09:09:17.549Z,55.90
2018-06-12T09:11:46.320Z,55.70
2018-06-12T09:14:15.153Z,56.10
2018-06-12T09:16:51.315Z,55.50
2018-06-12T09:19:20.360Z,56.40
2018-06-12T09:21:49.299Z,56.00
2018-06-12T09:24:18.196Z,56.50
2018-06-12T09:26:47.146Z,56.70
2018-06-12T09:29:16.134Z,56.90
2018-06-12T09:31:45.388Z,57.60
2018-06-12T09:36:42.651Z,55.60
2018-06-12T09:39:11.497Z,56.30
2018-06-12T09:41:40.450Z,55.80
2018-06-12T09:44:09.347Z,55.80
2018-06-12T09:46:38.696Z,55.80
2018-06-12T09:49:07.692Z,56.20
2018-06-12T09:51:36.710Z,55.70
2018-06-12T09:54:05.721Z,55.40
2018-06-12T09:56:34.801Z,55.20
2018-06-12T09:59:03.664Z,55.30
2018-06-12T10:01:32.589Z,55.20
2018-06-12T10:04:01.635Z,55.70
2018-06-12T10:06:30.676Z,54.90
2018-06-12T10:08:59.670Z,54.60
2018-06-12T10:11:32.542Z,54.90
2018-06-12T10:14:01.647Z,54.40
2018-06-12T10:16:30.598Z,55.00
2018-06-12T10:18:59.609Z,54.90
2018-06-12T10:21:28.480Z,54.70
2018-06-12T10:23:57.218Z,54.70
2018-06-12T10:26:26.172Z,53.40
2018-06-12T10:28:55.300Z,53.30
2018-06-12T10:31:24.201Z,53.90
2018-06-12T10:33:53.545Z,53.30
2018-06-12T10:36:22.537Z,53.30
2018-06-12T10:38:51.750Z,53.80
2018-06-12T10:41:21.117Z,54.10
2018-06-12T10:43:50.413Z,54.50
2018-06-12T10:46:19.381Z,53.30
2018-06-12T10:48:48.381Z,54.20
2018-06-12T10:51:17.233Z,54.20
2018-06-12T10:53:46.596Z,54.00
2018-06-12T10:56:15.532Z,53.60
2018-06-12T10:58:50.751Z,53.00
2018-06-12T11:01:19.794Z,53.70
2018-06-12T11:03:48.660Z,53.60
2018-06-12T11:06:17.557Z,52.70
2018-06-12T11:08:46.693Z,52.40
2018-06-12T11:11:15.699Z,52.80
2018-06-12T11:13:44.598Z,53.80
2018-06-12T11:16:13.424Z,53.50
2018-06-12T11:18:42.528Z,54.00
2018-06-12T11:21:11.593Z,53.20
2018-06-12T11:23:45.424Z,53.70
2018-06-12T11:26:14.613Z,53.40
2018-06-12T11:28:43.484Z,52.50
2018-06-12T11:31:12.392Z,51.90
2018-06-12T11:33:41.423Z,51.50
2018-06-12T11:36:10.387Z,51.60
2018-06-12T11:38:40.860Z,51.50
2018-06-12T11:41:10.218Z,51.80
2018-06-12T11:43:39.109Z,52.00
2018-06-12T11:46:08.133Z,53.40
2018-06-12T11:48:36.890Z,53.20
2018-06-12T11:51:06.008Z,52.20
2018-06-12T11:53:34.998Z,52.50
2018-06-12T11:56:03.986Z,52.60
2018-06-12T11:58:32.742Z,52.60
2018-06-12T12:01:01.991Z,52.70
2018-06-12T12:03:30.955Z,52.70
2018-06-12T12:06:00.062Z,53.00
2018-06-12T12:08:28.956Z,52.50
2018-06-12T12:10:57.648Z,52.70
2018-06-12T12:13:26.636Z,53.20
2018-06-12T12:15:55.804Z,53.20
2018-06-12T12:18:24.848Z,52.60
2018-06-12T12:20:54.121Z,52.40
2018-06-12T12:23:23.366Z,52.00
2018-06-12T12:25:52.107Z,51.50
2018-06-12T12:28:21.017Z,52.20
2018-06-12T12:33:17.884Z,52.30
2018-06-12T12:35:47.155Z,52.50
2018-06-12T12:38:20.009Z,53.00
2018-06-12T12:40:49.169Z,52.60
2018-06-12T12:43:17.897Z,52.20
2018-06-12T12:45:48.167Z,52.40
2018-06-12T12:50:45.453Z,52.70
2018-06-12T12:53:14.357Z,53.60
2018-06-12T12:55:43.330Z,52.80
2018-06-12T12:58:12.650Z,52.30
2018-06-12T13:00:41.485Z,52.80
2018-06-12T13:03:10.426Z,52.70
2018-06-12T13:05:39.562Z,52.10
2018-06-12T13:08:08.571Z,53.00
2018-06-12T13:10:37.769Z,52.40
2018-06-12T13:13:06.879Z,52.70
2018-06-12T13:15:35.741Z,52.60
2018-06-12T13:18:04.707Z,53.10
2018-06-12T13:20:33.626Z,52.60
2018-06-12T13:23:02.416Z,52.30
2018-06-12T13:25:31.423Z,53.20
2018-06-12T13:28:00.608Z,52.90
2018-06-12T13:30:29.564Z,52.40
2018-06-12T13:32:58.606Z,51.40
2018-06-12T13:35:27.485Z,51.50
2018-06-12T13:37:56.313Z,51.90
2018-06-12T13:40:25.300Z,52.40
2018-06-12T13:42:54.345Z,52.80
2018-06-12T13:45:23.129Z,51.60
2018-06-12T13:47:52.315Z,51.90
2018-06-12T13:50:21.175Z,51.50
2018-06-12T13:52:50.152Z,51.80
2018-06-12T13:55:19.304Z,51.10
2018-06-12T13:57:48.481Z,51.00
2018-06-12T14:00:17.234Z,51.50
2018-06-12T14:02:46.129Z,51.20
2018-06-12T14:05:15.021Z,50.80
2018-06-12T14:07:44.174Z,51.10
2018-06-12T14:10:13.207Z,51.20
2018-06-12T14:12:42.018Z,51.10
2018-06-12T14:15:11.041Z,51.60
2018-06-12T14:17:39.812Z,51.10
2018-06-12T14:20:08.674Z,51.20
2018-06-12T14:22:37.779Z,50.90
2018-06-12T14:25:06.967Z,50.80
2018-06-12T14:27:35.964Z,51.00
2018-06-12T14:30:05.039Z,50.80
2018-06-12T14:32:33.987Z,50.70
2018-06-12T14:35:02.934Z,52.20
2018-06-12T14:37:31.836Z,52.50
2018-06-12T14:40:00.828Z,52.10
2018-06-12T14:42:29.853Z,52.80
2018-06-12T14:45:12.028Z,52.70
2018-06-12T14:47:40.932Z,53.00
2018-06-12T14:50:10.014Z,53.70
2018-06-12T14:52:38.932Z,53.10
2018-06-12T14:55:07.792Z,53.20
2018-06-12T14:57:36.687Z,53.60
2018-06-12T15:00:05.756Z,53.10
2018-06-12T15:02:34.761Z,54.70
2018-06-12T15:05:03.905Z,55.50
2018-06-12T15:07:32.959Z,55.20
2018-06-12T15:10:01.861Z,54.70
2018-06-12T15:12:31.088Z,54.80
2018-06-12T15:15:00.301Z,54.90
2018-06-12T15:17:29.622Z,55.40
2018-06-12T15:19:58.298Z,55.10
2018-06-12T15:22:27.331Z,55.40
2018-06-12T15:24:56.553Z,55.30
2018-06-12T15:27:25.518Z,55.60
2018-06-12T15:29:54.934Z,55.90
2018-06-12T15:32:23.947Z,56.20
2018-06-12T15:34:53.052Z,55.80
2018-06-12T15:37:22.297Z,55.30
2018-06-12T15:39:51.232Z,55.70
2018-06-12T15:42:20.484Z,55.90
2018-06-12T15:44:49.408Z,56.30
2018-06-12T15:47:18.481Z,56.20
2018-06-12T15:49:47.421Z,55.40
2018-06-12T15:52:16.520Z,55.90
2018-06-12T15:54:45.345Z,56.50
2018-06-12T15:57:14.494Z,56.10
2018-06-12T15:59:43.353Z,56.80
2018-06-12T16:02:12.377Z,56.60
2018-06-12T16:04:41.622Z,56.70
2018-06-12T16:07:10.466Z,56.20
2018-06-12T16:09:44.973Z,56.40
2018-06-12T16:12:14.090Z,57.40
2018-06-12T16:17:12.708Z,57.20
2018-06-12T16:19:41.760Z,56.80
2018-06-12T16:22:22.144Z,57.70
2018-06-12T16:24:51.050Z,57.70
2018-06-12T16:27:19.936Z,57.20
2018-06-12T16:32:16.965Z,58.20
2018-06-12T16:34:57.193Z,57.60
2018-06-12T16:37:27.371Z,57.60
2018-06-12T16:39:56.271Z,57.70
2018-06-12T16:42:37.640Z,57.80
2018-06-12T16:45:06.697Z,58.00
2018-06-12T16:47:35.933Z,57.60
2018-06-12T16:50:04.994Z,58.80
2018-06-12T16:52:33.997Z,58.00
2018-06-12T16:55:03.142Z,58.40
2018-06-12T16:57:32.082Z,58.40
2018-06-12T17:00:01.099Z,57.90
2018-06-12T17:02:29.974Z,58.10
2018-06-12T17:04:59.230Z,58.20
2018-06-12T17:07:28.602Z,57.90
2018-06-12T17:10:02.374Z,58.10
2018-06-12T17:12:31.536Z,57.60
2018-06-12T17:15:00.522Z,57.90
2018-06-12T17:17:35.653Z,58.40
2018-06-12T17:20:04.631Z,58.30
2018-06-12T17:22:35.855Z,58.80
2018-06-12T17:25:05.297Z,58.60
2018-06-12T17:27:34.402Z,59.00
2018-06-12T17:30:03.339Z,59.40
2018-06-12T17:32:32.338Z,58.80
2018-06-12T17:35:01.359Z,58.40
2018-06-12T17:37:30.223Z,58.30
2018-06-12T17:40:01.509Z,59.20
2018-06-12T17:42:30.709Z,59.50
2018-06-12T17:44:59.687Z,59.20
2018-06-12T17:47:28.662Z,59.20
2018-06-12T17:49:57.550Z,59.40
2018-06-12T17:52:26.513Z,60.00
2018-06-12T17:54:55.662Z,59.70
2018-06-12T17:57:24.743Z,59.80
2018-06-12T17:59:59.281Z,60.30
2018-06-12T18:02:34.284Z,59.70
2018-06-12T18:05:12.077Z,59.70
2018-06-12T18:07:41.792Z,59.40
2018-06-12T18:10:11.027Z,60.10
2018-06-12T18:12:39.969Z,61.00
2018-06-12T18:15:08.870Z,61.00
2018-06-12T18:17:38.026Z,61.60
2018-06-12T18:20:12.394Z,61.40
2018-06-12T18:22:41.672Z,61.20
2018-06-12T18:25:10.833Z,61.90
2018-06-12T18:27:39.573Z,62.00
2018-06-12T18:30:08.574Z,62.30
2018-06-12T18:32:37.405Z,62.60
2018-06-12T18:35:06.488Z,61.70
2018-06-12T18:37:35.828Z,62.10
2018-06-12T18:40:05.006Z,62.90
2018-06-12T18:42:34.099Z,62.70
2018-06-12T18:45:03.091Z,64.30
2018-06-12T18:47:32.098Z,64.30
2018-06-12T18:50:01.382Z,64.80
2018-06-12T18:54:59.210Z,64.30
2018-06-12T18:57:28.468Z,64.30
2018-06-12T19:04:54.475Z,63.70
2018-06-12T19:07:23.516Z,64.00
2018-06-12T19:09:52.549Z,64.20
2018-06-12T19:12:23.031Z,64.30
2018-06-12T19:17:22.116Z,64.10
2018-06-12T19:19:51.352Z,64.30
2018-06-12T19:22:21.924Z,64.60
2018-06-12T19:24:53.175Z,64.30
2018-06-12T19:27:21.999Z,64.00
2018-06-12T19:29:51.003Z,64.20
2018-06-12T19:32:19.985Z,64.90
2018-06-12T19:34:50.125Z,65.20
2018-06-12T19:37:20.227Z,65.40
2018-06-12T19:39:49.334Z,65.30
2018-06-12T19:42:19.609Z,64.80
2018-06-12T19:44:49.781Z,64.50
2018-06-12T19:47:22.774Z,64.70
2018-06-12T19:52:20.776Z,65.30
2018-06-12T19:54:50.043Z,64.80
2018-06-12T19:57:23.027Z,65.60
2018-06-12T19:59:52.054Z,65.40
2018-06-12T20:02:21.249Z,65.50
2018-06-12T20:09:47.820Z,65.60
2018-06-12T20:12:16.919Z,65.30
2018-06-12T20:14:46.162Z,65.90
2018-06-12T20:17:20.015Z,66.20
2018-06-12T20:19:49.157Z,66.70
2018-06-12T20:22:18.062Z,67.10
2018-06-12T20:24:47.092Z,66.50
2018-06-12T20:29:44.687Z,67.10
2018-06-12T20:32:13.723Z,68.20
2018-06-12T20:34:42.964Z,67.90
2018-06-12T20:37:12.000Z,69.40
2018-06-12T20:39:40.965Z,69.30
2018-06-12T20:42:09.818Z,68.80
2018-06-12T20:44:38.850Z,69.60
2018-06-12T20:47:07.827Z,68.70
2018-06-12T20:49:36.724Z,68.30
2018-06-12T20:52:10.217Z,68.10
2018-06-12T20:54:39.221Z,67.80
2018-06-12T20:57:08.267Z,67.60
2018-06-12T20:59:37.125Z,67.30
2018-06-12T21:02:06.413Z,67.70
2018-06-12T21:04:35.358Z,67.90
2018-06-12T21:07:04.540Z,68.20
2018-06-12T21:09:43.527Z,68.50
2018-06-12T21:12:12.472Z,68.90
2018-06-12T21:14:42.743Z,69.20
2018-06-12T21:19:40.298Z,70.50
2018-06-12T21:22:09.716Z,69.70
2018-06-12T21:24:38.669Z,69.70
2018-06-12T21:27:11.371Z,69.80
2018-06-12T21:29:40.286Z,69.90
2018-06-12T21:32:09.190Z,69.90
2018-06-12T21:34:38.017Z,69.80
2018-06-12T21:37:06.925Z,69.60
2018-06-12T21:39:35.966Z,70.60
2018-06-12T21:42:04.921Z,70.90
2018-06-12T21:44:36.912Z,71.10
2018-06-12T21:49:34.754Z,71.30
2018-06-12T21:52:04.151Z,71.50
2018-06-12T21:54:33.081Z,71.90
2018-06-12T21:59:30.174Z,72.20
2018-06-12T22:01:59.271Z,72.20
2018-06-12T22:04:28.400Z,72.10
2018-06-12T22:06:57.552Z,71.50
2018-06-12T22:09:26.737Z,71.60
2018-06-12T22:11:55.724Z,71.60
2018-06-12T22:14:29.149Z,71.40
2018-06-12T22:16:58.862Z,73.30
2018-06-12T22:19:28.062Z,72.80
2018-06-12T22:21:57.060Z,73.00
2018-06-12T22:24:27.792Z,72.70
2018-06-12T22:26:57.036Z,73.40
2018-06-12T22:29:26.235Z,74.00
2018-06-12T22:31:55.391Z,73.60
2018-06-12T22:34:24.467Z,72.60
2018-06-12T22:36:53.447Z,72.20
2018-06-12T22:41:50.739Z,71.60
2018-06-12T22:44:19.997Z,72.10
2018-06-12T22:46:48.814Z,71.90
2018-06-12T22:49:17.572Z,72.10
2018-06-12T22:51:48.485Z,72.30
2018-06-12T22:54:17.526Z,72.30
2018-06-12T22:56:46.470Z,72.20
2018-06-12T22:59:15.411Z,72.50
2018-06-12T23:01:44.378Z,72.80
2018-06-12T23:04:13.369Z,71.90
2018-06-12T23:06:42.785Z,72.10
2018-06-12T23:09:11.771Z,71.90
2018-06-12T23:11:40.863Z,71.80
2018-06-12T23:14:09.690Z,72.20
2018-06-12T23:16:38.681Z,72.60
2018-06-12T23:19:07.850Z,72.90
2018-06-12T23:21:48.572Z,72.90
2018-06-12T23:24:17.570Z,72.50
2018-06-12T23:26:46.541Z,72.90
2018-06-12T23:29:16.087Z,73.80
2018-06-12T23:31:45.103Z,74.50
2018-06-12T23:34:14.580Z,76.20
2018-06-12T23:36:43.432Z,76.00
2018-06-12T23:41:41.081Z,75.40
2018-06-12T23:44:10.055Z,75.00
2018-06-12T23:46:39.103Z,75.60
2018-06-12T23:49:08.186Z,74.70
2018-06-12T23:51:37.393Z,74.00
2018-06-12T23:54:06.274Z,73.60
2018-06-12T23:59:03.954Z,72.50
